createdAt,value
2022-11-12T00:00:19.991Z,26.70
2022-11-12T00:03:05.724Z,26.50
2022-11-12T00:05:53.516Z,23.90
2022-11-12T00:08:40.508Z,22.90
2022-11-12T00:11:26.535Z,24.10
2022-11-12T00:14:13.364Z,26.40
2022-11-12T00:16:59.218Z,23.80
2022-11-12T00:19:45.501Z,25.20
2022-11-12T00:22:31.498Z,24.00
2022-11-12T00:25:17.417Z,16.70
2022-11-12T00:28:05.103Z,20.30
2022-11-12T00:30:50.832Z,21.50
2022-11-12T00:33:40.071Z,23.60
2022-11-12T00:36:26.013Z,26.70
2022-11-12T00:39:16.099Z,25.40
2022-11-12T00:42:01.999Z,23.70
2022-11-12T00:44:50.077Z,20.70
2022-11-12T00:47:35.983Z,23.60
2022-11-12T00:50:21.776Z,22.40
2022-11-12T00:53:07.752Z,24.70
2022-11-12T00:55:53.210Z,27.70
2022-11-12T00:58:38.847Z,26.30
2022-11-12T01:01:25.190Z,31.50
2022-11-12T01:04:11.349Z,22.00
2022-11-12T01:06:57.433Z,24.10
2022-11-12T01:09:43.152Z,22.80
2022-11-12T01:12:31.522Z,24.70
2022-11-12T01:15:16.975Z,25.00
2022-11-12T01:18:04.322Z,25.40
2022-11-12T01:20:50.813Z,27.70
2022-11-12T01:23:38.755Z,22.50
2022-11-12T01:26:24.408Z,22.50
2022-11-12T01:29:10.786Z,23.90
2022-11-12T01:31:57.248Z,26.90
2022-11-12T01:34:42.786Z,24.80
2022-11-12T01:37:28.607Z,27.20
2022-11-12T01:40:15.217Z,24.00
2022-11-12T01:43:01.096Z,18.10
2022-11-12T01:45:47.227Z,19.00
2022-11-12T01:48:34.628Z,19.90
2022-11-12T01:51:21.866Z,24.90
2022-11-12T01:54:09.308Z,22.50
2022-11-12T01:56:55.345Z,23.10
2022-11-12T01:59:43.550Z,17.40
2022-11-12T02:02:31.227Z,17.80
2022-11-12T02:05:17.369Z,19.90
2022-11-12T02:08:04.622Z,19.50
2022-11-12T02:10:50.613Z,19.70
2022-11-12T02:13:58.001Z,20.60
2022-11-12T02:16:44.964Z,19.90
2022-11-12T02:19:30.592Z,18.60
2022-11-12T02:22:16.415Z,15.20
2022-11-12T02:25:02.429Z,21.80
2022-11-12T02:27:51.907Z,18.70
2022-11-12T02:30:40.075Z,20.40
2022-11-12T02:33:25.789Z,24.40
2022-11-12T02:36:11.507Z,25.40
2022-11-12T02:38:57.524Z,22.40
2022-11-12T02:41:43.204Z,23.40
2022-11-12T02:44:29.616Z,23.80
2022-11-12T02:47:16.686Z,21.60
2022-11-12T02:50:02.829Z,23.10
2022-11-12T02:52:48.924Z,21.40
2022-11-12T02:55:35.279Z,22.50
2022-11-12T02:58:22.751Z,18.90
2022-11-12T03:01:08.392Z,22.10
2022-11-12T03:03:54.069Z,23.50
2022-11-12T03:06:40.694Z,20.40
2022-11-12T03:09:26.908Z,19.80
2022-11-12T03:12:12.856Z,19.50
2022-11-12T03:14:58.344Z,18.60
2022-11-12T03:17:44.574Z,14.00
2022-11-12T03:20:30.364Z,13.20
2022-11-12T03:23:16.690Z,16.50
2022-11-12T03:26:04.085Z,17.40
2022-11-12T03:28:51.654Z,19.60
2022-11-12T03:31:37.464Z,23.10
2022-11-12T03:34:23.943Z,25.10
2022-11-12T03:37:10.495Z,19.10
2022-11-12T03:39:58.575Z,20.50
2022-11-12T03:42:48.906Z,34.00
2022-11-12T03:45:35.271Z,21.60
2022-11-12T03:48:20.758Z,34.90
2022-11-12T03:51:06.917Z,25.90
2022-11-12T03:53:52.683Z,43.10
2022-11-12T03:56:38.950Z,18.40
2022-11-12T03:59:24.816Z,22.10
2022-11-12T04:02:14.572Z,21.90
2022-11-12T04:05:21.268Z,26.30
2022-11-12T04:08:36.407Z,25.50
2022-11-12T04:11:22.032Z,23.10
2022-11-12T04:14:07.977Z,26.40
2022-11-12T04:17:12.225Z,20.80
2022-11-12T04:20:16.840Z,16.90
2022-11-12T04:23:03.115Z,30.70
2022-11-12T04:26:07.921Z,24.80
2022-11-12T04:29:12.157Z,20.40
2022-11-12T04:31:57.903Z,23.80
2022-11-12T04:34:45.088Z,28.40
2022-11-12T04:37:44.457Z,22.70
2022-11-12T04:40:49.303Z,24.50
2022-11-12T04:43:53.677Z,24.80
2022-11-12T04:46:39.073Z,22.80
2022-11-12T04:49:24.651Z,30.60
2022-11-12T04:52:10.783Z,24.30
2022-11-12T04:54:57.089Z,17.10
2022-11-12T04:57:42.844Z,20.80
2022-11-12T05:00:29.358Z,27.40
2022-11-12T05:03:15.372Z,39.30
2022-11-12T05:06:04.809Z,19.80
2022-11-12T05:08:50.592Z,19.00
2022-11-12T05:11:36.105Z,17.40
2022-11-12T05:14:25.162Z,23.40
2022-11-12T05:17:11.965Z,23.10
2022-11-12T05:19:57.952Z,20.20
2022-11-12T05:22:58.979Z,30.70
2022-11-12T05:28:30.744Z,25.20
2022-11-12T05:31:16.047Z,22.70
2022-11-12T05:34:06.565Z,17.20
2022-11-12T05:36:52.601Z,21.60
2022-11-12T05:39:39.319Z,21.10
2022-11-12T05:42:25.064Z,25.60
2022-11-12T05:45:11.544Z,28.80
2022-11-12T05:47:57.340Z,21.90
2022-11-12T05:51:06.149Z,22.50
2022-11-12T05:53:48.824Z,23.20
2022-11-12T05:56:35.674Z,21.50
2022-11-12T05:59:22.533Z,23.00
2022-11-12T06:02:08.354Z,25.80
2022-11-12T06:04:54.311Z,26.50
2022-11-12T06:07:40.895Z,36.40
2022-11-12T06:10:27.260Z,32.50
2022-11-12T06:13:13.153Z,27.60
2022-11-12T06:16:00.448Z,26.70
2022-11-12T06:18:46.233Z,21.00
2022-11-12T06:21:32.620Z,21.90
2022-11-12T06:24:19.244Z,22.50
2022-11-12T06:27:05.291Z,22.90
2022-11-12T06:29:51.468Z,25.50
2022-11-12T06:32:37.758Z,24.70
2022-11-12T06:35:23.721Z,18.70
2022-11-12T06:38:09.576Z,20.30
2022-11-12T06:40:56.012Z,23.30
2022-11-12T06:43:42.033Z,24.50
2022-11-12T06:46:27.615Z,24.90
2022-11-12T06:49:14.070Z,24.20
2022-11-12T06:52:00.060Z,20.50
2022-11-12T06:54:46.089Z,20.00
2022-11-12T06:57:32.186Z,31.00
2022-11-12T07:00:18.261Z,27.60
2022-11-12T07:03:07.687Z,30.80
2022-11-12T07:05:53.481Z,26.50
2022-11-12T07:08:39.537Z,28.20
2022-11-12T07:11:25.471Z,19.60
2022-11-12T07:14:16.320Z,35.00
2022-11-12T07:17:03.997Z,51.00
2022-11-12T07:19:49.605Z,41.10
2022-11-12T07:22:35.232Z,33.80
2022-11-12T07:25:21.701Z,26.00
2022-11-12T07:28:08.507Z,28.60
2022-11-12T07:31:20.564Z,17.90
2022-11-12T07:34:06.825Z,23.20
2022-11-12T07:36:52.528Z,29.60
2022-11-12T07:39:38.815Z,30.20
2022-11-12T07:42:24.453Z,26.00
2022-11-12T07:45:10.947Z,24.70
2022-11-12T07:47:59.329Z,26.50
2022-11-12T07:50:47.102Z,20.10
2022-11-12T07:53:34.086Z,18.60
2022-11-12T07:56:22.286Z,24.10
2022-11-12T07:59:08.287Z,25.50
2022-11-12T08:01:54.144Z,23.60
2022-11-12T08:04:40.211Z,26.90
2022-11-12T08:07:26.288Z,27.40
2022-11-12T08:10:12.448Z,24.20
2022-11-12T08:12:58.079Z,23.40
2022-11-12T08:15:49.454Z,22.30
2022-11-12T08:18:37.961Z,28.60
2022-11-12T08:21:23.589Z,25.40
2022-11-12T08:24:09.620Z,26.00
2022-11-12T08:26:55.337Z,28.20
2022-11-12T08:29:41.197Z,27.70
2022-11-12T08:32:27.302Z,20.10
2022-11-12T08:35:13.259Z,25.40
2022-11-12T08:38:00.157Z,22.30
2022-11-12T08:40:46.101Z,29.10
2022-11-12T08:43:32.531Z,22.40
2022-11-12T08:46:18.384Z,23.20
2022-11-12T08:49:04.105Z,26.60
2022-11-12T08:51:49.812Z,29.80
2022-11-12T08:54:35.721Z,19.10
2022-11-12T08:57:21.704Z,19.70
2022-11-12T09:00:07.873Z,19.20
2022-11-12T09:02:53.257Z,19.70
2022-11-12T09:05:40.872Z,22.90
2022-11-12T09:08:27.022Z,23.10
2022-11-12T09:11:13.834Z,23.90
2022-11-12T09:13:59.398Z,24.80
2022-11-12T09:16:46.491Z,21.20
2022-11-12T09:19:31.913Z,22.90
2022-11-12T09:22:17.682Z,22.30
2022-11-12T09:25:03.554Z,22.70
2022-11-12T09:27:49.451Z,25.60
2022-11-12T09:30:37.122Z,24.10
2022-11-12T09:33:29.463Z,25.70
2022-11-12T09:36:17.713Z,23.80
2022-11-12T09:39:05.281Z,19.30
2022-11-12T09:41:50.970Z,19.20
2022-11-12T09:44:39.425Z,20.60
2022-11-12T09:47:27.882Z,25.50
2022-11-12T09:50:22.865Z,23.50
2022-11-12T09:53:17.177Z,21.10
2022-11-12T09:56:06.396Z,21.60
2022-11-12T09:58:51.917Z,20.40
2022-11-12T10:01:43.930Z,19.00
2022-11-12T10:04:42.257Z,21.00
2022-11-12T10:07:34.075Z,20.60
2022-11-12T10:10:30.335Z,26.30
2022-11-12T10:13:35.004Z,22.30
2022-11-12T10:16:45.739Z,19.90
2022-11-12T10:20:01.415Z,21.40
2022-11-12T10:22:59.140Z,23.10
2022-11-12T10:25:46.762Z,19.80
2022-11-12T10:29:21.448Z,22.40
2022-11-12T10:32:10.640Z,24.70
2022-11-12T10:34:57.141Z,24.20
2022-11-12T10:38:01.214Z,25.00
2022-11-12T10:40:47.414Z,26.10
2022-11-12T10:43:33.196Z,26.20
2022-11-12T10:46:30.834Z,26.60
2022-11-12T10:49:16.426Z,21.80
2022-11-12T10:52:01.980Z,22.70
2022-11-12T10:54:53.916Z,23.40
2022-11-12T10:57:40.672Z,25.40
2022-11-12T11:00:26.578Z,23.40
2022-11-12T11:03:28.242Z,25.70
2022-11-12T11:06:14.415Z,24.00
2022-11-12T11:09:20.613Z,29.50
2022-11-12T11:12:19.094Z,22.80
2022-11-12T11:15:11.610Z,23.50
2022-11-12T11:17:57.198Z,24.90
2022-11-12T11:20:48.075Z,46.50
2022-11-12T11:23:48.515Z,33.20
2022-11-12T11:26:40.843Z,43.50
2022-11-12T11:29:45.304Z,35.70
2022-11-12T11:32:49.782Z,41.10
2022-11-12T11:35:44.337Z,28.00
2022-11-12T11:38:36.023Z,25.50
2022-11-12T11:42:12.838Z,25.20
2022-11-12T11:45:03.370Z,30.00
2022-11-12T11:48:02.620Z,30.50
2022-11-12T11:50:59.997Z,24.10
2022-11-12T11:54:01.786Z,24.30
2022-11-12T11:56:47.398Z,30.30
2022-11-12T12:00:01.285Z,23.90
2022-11-12T12:02:58.016Z,34.00
2022-11-12T12:06:06.947Z,26.60
2022-11-12T12:09:03.176Z,23.00
2022-11-12T12:12:01.637Z,25.10
2022-11-12T12:14:56.735Z,22.60
2022-11-12T12:17:51.067Z,22.40
2022-11-12T12:20:39.832Z,21.80
2022-11-12T12:23:41.122Z,23.50
2022-11-12T12:26:40.189Z,20.20
2022-11-12T12:29:55.499Z,21.90
2022-11-12T12:32:45.388Z,22.70
2022-11-12T12:35:40.638Z,28.60
2022-11-12T12:38:38.344Z,18.40
2022-11-12T12:41:29.745Z,20.60
2022-11-12T12:44:15.391Z,19.00
2022-11-12T12:47:00.991Z,19.50
2022-11-12T12:49:47.102Z,23.80
2022-11-12T12:53:05.561Z,19.20
2022-11-12T12:55:52.226Z,16.60
2022-11-12T12:58:41.065Z,17.10
2022-11-12T13:01:31.968Z,16.50
2022-11-12T13:04:17.500Z,16.50
2022-11-12T13:07:06.336Z,13.70
2022-11-12T13:10:43.163Z,14.10
2022-11-12T13:13:32.712Z,16.40
2022-11-12T13:16:58.898Z,16.60
2022-11-12T13:19:53.534Z,16.40
2022-11-12T13:22:39.155Z,17.40
2022-11-12T13:25:28.100Z,16.10
2022-11-12T13:28:14.485Z,17.60
2022-11-12T13:41:09.660Z,26.90
2022-11-12T13:43:55.557Z,23.20
2022-11-12T13:46:42.440Z,25.90
2022-11-12T13:49:28.096Z,26.00
2022-11-12T13:52:15.049Z,31.80
2022-11-12T13:55:07.393Z,21.30
2022-11-12T13:57:53.973Z,20.10
2022-11-12T14:00:40.105Z,23.30
2022-11-12T14:03:29.067Z,23.70
2022-11-12T14:20:31.653Z,21.90
2022-11-12T14:23:24.858Z,31.20
2022-11-12T14:26:12.274Z,29.90
2022-11-12T14:28:59.384Z,21.80
2022-11-12T14:31:46.048Z,21.40
2022-11-12T14:34:34.620Z,21.10
2022-11-12T14:37:39.882Z,25.90
2022-11-12T14:40:31.257Z,28.20
2022-11-12T14:43:28.262Z,27.50
2022-11-12T14:46:29.452Z,28.70
2022-11-12T14:49:23.030Z,34.00
2022-11-12T14:52:31.943Z,29.90
2022-11-12T14:55:21.713Z,32.30
2022-11-12T14:58:07.267Z,26.00
2022-11-12T15:00:53.595Z,26.90
2022-11-12T15:03:40.059Z,30.30
2022-11-12T15:06:30.887Z,31.90
2022-11-12T15:09:21.962Z,41.30
2022-11-12T15:12:11.225Z,44.50
2022-11-12T16:11:31.640Z,97.50
2022-11-12T16:14:19.809Z,120.00
2022-11-12T16:17:13.756Z,116.30
2022-11-12T16:20:00.787Z,92.50
2022-11-12T16:22:50.463Z,144.80
2022-11-12T16:25:38.087Z,128.70
2022-11-12T16:28:23.476Z,137.60
2022-11-12T16:31:09.066Z,109.50
2022-11-12T16:33:54.067Z,105.70
2022-11-12T16:36:40.582Z,107.10
2022-11-12T16:39:25.593Z,192.20
2022-11-12T16:42:11.361Z,179.20
2022-11-12T16:44:56.424Z,231.30
2022-11-12T16:47:44.354Z,99.70
2022-11-12T16:50:29.509Z,125.30
2022-11-12T16:53:14.805Z,130.50
2022-11-12T16:55:59.633Z,136.00
2022-11-12T16:58:46.720Z,163.80
2022-11-12T17:01:32.367Z,121.00
2022-11-12T17:04:17.340Z,136.60
2022-11-12T17:07:05.013Z,80.90
2022-11-12T17:09:52.278Z,83.20
2022-11-12T17:12:37.804Z,93.80
2022-11-12T17:15:23.043Z,114.40
2022-11-12T17:18:09.701Z,123.70
2022-11-12T17:20:56.923Z,136.30
2022-11-12T17:23:42.853Z,130.60
2022-11-12T17:26:28.298Z,105.80
2022-11-12T17:29:13.231Z,102.00
2022-11-12T17:31:58.861Z,121.30
2022-11-12T17:34:44.666Z,113.50
2022-11-12T17:37:30.114Z,123.20
2022-11-12T17:40:15.413Z,132.50
2022-11-12T17:43:00.405Z,130.60
2022-11-12T17:45:49.566Z,106.60
2022-11-12T17:48:35.822Z,137.60
2022-11-12T17:51:22.272Z,139.00
2022-11-12T17:54:08.060Z,146.90
2022-11-12T17:56:52.852Z,126.40
2022-11-12T17:59:38.819Z,122.40
2022-11-12T18:02:23.681Z,120.30
2022-11-12T18:05:10.819Z,75.50
2022-11-12T18:07:56.078Z,76.90
2022-11-12T18:10:42.210Z,96.00
2022-11-12T18:13:27.637Z,98.50
2022-11-12T18:16:19.525Z,112.70
2022-11-12T18:19:05.272Z,115.50
2022-11-12T18:21:52.177Z,91.80
2022-11-12T18:24:37.492Z,70.30
2022-11-12T18:27:22.211Z,80.80
2022-11-12T18:30:08.396Z,81.70
2022-11-12T18:32:53.716Z,69.50
2022-11-12T18:35:40.584Z,72.70
2022-11-12T18:38:25.595Z,65.40
2022-11-12T18:41:14.464Z,77.00
2022-11-12T18:44:00.216Z,68.40
2022-11-12T18:46:45.689Z,81.70
2022-11-12T18:49:30.606Z,86.50
2022-11-12T18:52:16.561Z,101.90
2022-11-12T18:55:03.343Z,126.50
2022-11-12T18:57:48.437Z,117.60
2022-11-12T19:00:34.517Z,101.10
2022-11-12T19:03:19.884Z,72.30
2022-11-12T19:06:05.984Z,73.30
2022-11-12T19:08:51.101Z,76.20
2022-11-12T19:11:35.882Z,79.40
2022-11-12T19:14:23.276Z,102.10
2022-11-12T19:17:08.306Z,98.60
2022-11-12T19:19:53.504Z,97.60
2022-11-12T19:22:39.192Z,82.20
2022-11-12T19:25:25.013Z,98.20
2022-11-12T19:28:10.325Z,107.60
2022-11-12T19:30:55.517Z,117.10
2022-11-12T19:33:40.700Z,127.10
2022-11-12T19:36:26.891Z,121.30
2022-11-12T19:39:11.647Z,138.40
2022-11-12T19:41:56.943Z,106.40
2022-11-12T19:44:41.627Z,115.70
2022-11-12T19:47:26.554Z,127.30
2022-11-12T19:50:11.290Z,136.90
2022-11-12T19:52:56.613Z,132.00
2022-11-12T19:55:42.205Z,120.30
2022-11-12T19:58:27.772Z,157.60
2022-11-12T20:01:13.929Z,122.40
2022-11-12T20:03:58.957Z,144.20
2022-11-12T20:06:44.146Z,150.10
2022-11-12T20:09:29.314Z,116.50
2022-11-12T20:12:14.291Z,150.50
2022-11-12T20:14:59.405Z,150.80
2022-11-12T20:17:45.040Z,145.90
2022-11-12T20:20:30.444Z,116.10
2022-11-12T20:23:15.950Z,127.90
2022-11-12T20:26:06.235Z,125.50
2022-11-12T20:28:51.669Z,124.60
2022-11-12T20:31:37.434Z,136.30
2022-11-12T20:34:22.152Z,134.40
2022-11-12T20:37:07.152Z,122.10
2022-11-12T20:39:53.644Z,103.00
2022-11-12T20:42:40.640Z,137.10
2022-11-12T20:45:26.524Z,153.40
2022-11-12T20:48:11.556Z,187.90
2022-11-12T20:51:23.267Z,166.70
2022-11-12T20:54:10.001Z,161.00
2022-11-12T20:56:55.501Z,155.80
2022-11-12T20:59:40.631Z,118.60
2022-11-12T21:02:26.079Z,109.90
2022-11-12T21:05:10.920Z,148.90
2022-11-12T21:07:56.739Z,144.60
2022-11-12T21:10:41.786Z,119.90
2022-11-12T21:13:26.737Z,141.60
2022-11-12T21:16:13.023Z,141.20
2022-11-12T21:19:01.375Z,76.10
2022-11-12T21:21:46.778Z,82.30
2022-11-12T21:24:31.489Z,80.60
2022-11-12T21:27:16.958Z,96.20
2022-11-12T21:30:02.166Z,84.20
2022-11-12T21:32:47.066Z,93.50
2022-11-12T21:35:32.349Z,79.40
2022-11-12T21:38:17.601Z,87.60
2022-11-12T21:41:14.673Z,84.10
2022-11-12T21:43:59.851Z,83.50
2022-11-12T21:46:44.806Z,78.40
2022-11-12T21:49:30.277Z,73.90
2022-11-12T21:52:15.462Z,57.50
2022-11-12T21:55:00.446Z,55.70
2022-11-12T21:57:45.530Z,54.60
2022-11-12T22:00:46.086Z,63.90
2022-11-12T22:03:31.457Z,78.30
2022-11-12T22:06:17.748Z,69.10
2022-11-12T22:09:03.056Z,47.80
2022-11-12T22:11:48.233Z,42.30
2022-11-12T22:14:33.146Z,46.50
2022-11-12T22:17:18.613Z,53.90
2022-11-12T22:20:05.564Z,58.10
2022-11-12T22:22:51.089Z,68.30
2022-11-12T22:25:36.395Z,50.50
2022-11-12T22:28:21.432Z,49.60
2022-11-12T22:31:11.350Z,66.80
2022-11-12T22:33:57.596Z,85.80
2022-11-12T22:36:42.869Z,71.80
2022-11-12T22:39:28.061Z,78.90
2022-11-12T22:42:13.650Z,47.40
2022-11-12T22:45:00.499Z,58.50
2022-11-12T22:47:45.539Z,52.20
2022-11-12T22:50:31.551Z,49.30
2022-11-12T22:53:16.372Z,46.20
2022-11-12T22:56:06.253Z,60.10
2022-11-12T22:58:51.381Z,41.00
2022-11-12T23:01:37.255Z,40.20
2022-11-12T23:04:22.916Z,39.20
2022-11-12T23:07:08.119Z,47.00
2022-11-12T23:09:54.489Z,41.10
2022-11-12T23:12:40.046Z,42.70
2022-11-12T23:15:28.130Z,42.50
2022-11-12T23:18:13.089Z,35.00
2022-11-12T23:21:05.992Z,34.80
2022-11-12T23:23:50.883Z,36.80
2022-11-12T23:26:36.502Z,38.40
2022-11-12T23:29:21.525Z,35.60
2022-11-12T23:32:06.627Z,35.80
2022-11-12T23:34:53.014Z,37.80
2022-11-12T23:37:38.125Z,29.00
2022-11-12T23:40:29.703Z,30.10
2022-11-12T23:43:15.747Z,32.20
2022-11-12T23:46:00.656Z,33.30
2022-11-12T23:48:46.261Z,35.60
2022-11-12T23:51:33.241Z,34.10
2022-11-12T23:54:18.552Z,32.40
2022-11-12T23:57:03.621Z,30.50
2022-11-12T23:59:51.877Z,30.80
